Time;durP1;ratioP1;P1;durP2;ratioP2;P2;SDS_P1;SDS_P2;PMS_P1;PMS_P2;Temp;Humidity;BMP_temperature;BMP_pressure;BME280_temperature;BME280_humidity;BME280_pressure;Samples;Min_cycle;Max_cycle;Signal;HPM_P1;HPM_P2
2021/08/15 04:01:57;;;;;;;;;;;20.60;99.90;;;;;;5;36039111;41316081;-76
2021/08/15 04:05:17;;;;;;;;;;;20.50;99.90;;;;;;5;36014858;41268938;-78
2021/08/15 04:09:13;;;;;;;;;;;20.50;99.90;;;;;;5;36015076;41266451;-78
2021/08/15 04:12:27;;;;;;;;;;;20.40;99.90;;;;;;5;36015265;41265836;-78
2021/08/15 04:15:45;;;;;;;;;;;20.40;99.90;;;;;;5;36012566;41265367;-78
2021/08/15 04:19:05;;;;;;;;;;;20.30;99.90;;;;;;5;36014053;41265890;-78
2021/08/15 04:22:26;;;;;;;;;;;20.30;99.90;;;;;;5;36014130;42015963;-78
2021/08/15 04:25:40;;;;;;;;;;;20.30;99.90;;;;;;5;36014002;41264721;-78
2021/08/15 04:28:57;;;;;;;;;;;20.30;99.90;;;;;;5;36013645;41264956;-78
2021/08/15 04:32:16;;;;;;;;;;;20.30;99.90;;;;;;5;36013527;41266320;-77
2021/08/15 04:35:36;;;;;;;;;;;20.30;99.90;;;;;;5;36014319;41266677;-78
2021/08/15 04:38:50;;;;;;;;;;;20.30;99.90;;;;;;5;36013525;41265591;-78
2021/08/15 04:42:07;;;;;;;;;;;20.30;99.90;;;;;;5;36013147;41267126;-78
2021/08/15 04:45:27;;;;;;;;;;;20.30;99.90;;;;;;5;36013296;41266278;-77
2021/08/15 04:48:46;;;;;;;;;;;20.40;99.90;;;;;;5;36013856;41266129;-77
2021/08/15 04:52:00;;;;;;;;;;;20.40;99.90;;;;;;5;36014495;41265261;-77
2021/08/15 04:55:19;;;;;;;;;;;20.50;99.90;;;;;;5;36013942;42016167;-77
2021/08/15 04:58:38;;;;;;;;;;;20.60;99.90;;;;;;5;36013211;41265870;-77
2021/08/15 05:01:58;;;;;;;;;;;20.60;99.90;;;;;;5;36013321;41267711;-78
2021/08/15 05:05:12;;;;;;;;;;;20.70;99.90;;;;;;5;36014100;41267107;-77
2021/08/15 05:08:30;;;;;;;;;;;20.70;99.90;;;;;;5;36013127;41266437;-77
2021/08/15 05:11:49;;;;;;;;;;;20.80;99.90;;;;;;5;36012879;41265867;-78
2021/08/15 05:15:09;;;;;;;;;;;20.50;99.90;;;;;;5;36014311;41265411;-77
2021/08/15 05:18:23;;;;;;;;;;;20.80;99.90;;;;;;5;36013250;41266137;-77
2021/08/15 05:21:40;;;;;;;;;;;20.80;99.90;;;;;;5;36013874;41265905;-76
2021/08/15 05:24:59;;;;;;;;;;;20.80;99.90;;;;;;5;36012908;41266287;-77
2021/08/15 05:28:20;;;;;;;;;;;20.90;99.90;;;;;;5;36013849;42015384;-77
2021/08/15 05:31:34;;;;;;;;;;;20.90;99.90;;;;;;5;36014856;41265820;-78
2021/08/15 05:34:51;;;;;;;;;;;21.00;99.90;;;;;;5;36016109;41266885;-77
2021/08/15 05:38:11;;;;;;;;;;;21.10;99.90;;;;;;5;36012732;41265687;-77
2021/08/15 05:41:31;;;;;;;;;;;21.20;99.90;;;;;;5;36014558;41265633;-77
2021/08/15 05:44:45;;;;;;;;;;;21.20;99.90;;;;;;5;36013790;41266670;-78
2021/08/15 05:48:03;;;;;;;;;;;21.40;99.90;;;;;;5;36013235;41266357;-78
2021/08/15 05:51:22;;;;;;;;;;;21.50;99.90;;;;;;5;36014691;41266297;-77
2021/08/15 05:54:41;;;;;;;;;;;21.70;99.90;;;;;;5;36013479;41265525;-78
2021/08/15 05:57:56;;;;;;;;;;;21.80;99.90;;;;;;5;36015223;41265454;-78
2021/08/15 06:01:14;;;;;;;;;;;22.00;99.90;;;;;;5;36014343;42015812;-78
2021/08/15 06:04:34;;;;;;;;;;;22.10;99.90;;;;;;5;36013787;41265191;-77
2021/08/15 06:07:53;;;;;;;;;;;22.50;99.90;;;;;;5;36014907;41265862;-77
2021/08/15 06:11:07;;;;;;;;;;;22.80;98.60;;;;;;5;36013950;41267739;-76
2021/08/15 06:14:24;;;;;;;;;;;23.00;97.30;;;;;;5;36014707;41267054;-76
2021/08/15 06:17:44;;;;;;;;;;;23.10;96.90;;;;;;5;36013504;41266535;-77
2021/08/15 06:21:03;;;;;;;;;;;23.20;96.90;;;;;;5;36013367;41265088;-79
2021/08/15 06:24:17;;;;;;;;;;;23.30;96.50;;;;;;5;36013443;41266061;-79
2021/08/15 06:27:35;;;;;;;;;;;23.60;95.50;;;;;;5;36013285;41265439;-79
2021/08/15 06:30:54;;;;;;;;;;;23.80;94.50;;;;;;5;36013913;41266308;-78
2021/08/15 06:34:15;;;;;;;;;;;24.00;93.20;;;;;;5;36014441;42015976;-79
2021/08/15 06:37:29;;;;;;;;;;;24.10;91.90;;;;;;5;36014345;41266115;-78
2021/08/15 06:40:46;;;;;;;;;;;24.20;91.30;;;;;;5;36012914;41266088;-79
2021/08/15 06:44:06;;;;;;;;;;;24.30;90.60;;;;;;5;36013791;41266227;-78
2021/08/15 06:47:25;;;;;;;;;;;24.40;90.20;;;;;;5;36013834;41264859;-78
2021/08/15 06:50:40;;;;;;;;;;;24.50;90.00;;;;;;5;36013399;41266653;-79
2021/08/15 06:53:57;;;;;;;;;;;24.70;89.40;;;;;;5;36013272;41265397;-77
2021/08/15 06:57:16;;;;;;;;;;;24.90;86.80;;;;;;5;36015800;41266359;-91
2021/08/15 07:00:36;;;;;;;;;;;24.80;86.20;;;;;;5;36013056;41266166;-91
2021/08/15 07:03:50;;;;;;;;;;;25.00;85.90;;;;;;5;36015254;41266097;-90
2021/08/15 07:07:08;;;;;;;;;;;25.10;86.50;;;;;;5;36015465;42016618;-91
2021/08/15 07:10:28;;;;;;;;;;;25.20;85.40;;;;;;5;36013402;41266474;-91
2021/08/15 07:13:48;;;;;;;;;;;25.20;85.10;;;;;;5;36013653;41265864;-90
2021/08/15 07:32:50;;;;;;;;;;;25.60;78.70;;;;;;5;36015427;41266754;-89
2021/08/15 07:44:03;;;;;;;;;;;26.40;76.80;;;;;;5;36014535;42015523;-89
2021/08/15 07:47:17;;;;;;;;;;;27.00;75.00;;;;;;5;36014878;41266600;-91
2021/08/15 07:50:38;;;;;;;;;;;27.50;73.90;;;;;;5;36013798;41265773;-90
2021/08/15 07:53:58;;;;;;;;;;;28.50;72.40;;;;;;5;36013780;41265955;-92
2021/08/15 07:57:19;;;;;;;;;;;30.20;65.90;;;;;;5;36015198;41265852;-91
2021/08/15 08:00:33;;;;;;;;;;;32.40;61.90;;;;;;5;36014608;41266069;-88
2021/08/15 08:03:50;;;;;;;;;;;34.40;60.90;;;;;;5;36014135;41265902;-90
2021/08/15 08:07:10;;;;;;;;;;;36.00;58.50;;;;;;5;36013162;41266110;-90
2021/08/15 08:10:29;;;;;;;;;;;37.50;55.60;;;;;;5;36014479;41265328;-91
2021/08/15 08:13:45;;;;;;;;;;;38.20;52.70;;;;;;5;36013373;41266570;-90
2021/08/15 08:17:04;;;;;;;;;;;39.20;50.60;;;;;;5;36013164;42016869;-90
2021/08/15 08:20:24;;;;;;;;;;;40.00;50.10;;;;;;5;36014246;41267758;-90
2021/08/15 08:23:43;;;;;;;;;;;40.80;48.70;;;;;;5;36013746;41266179;-90
2021/08/15 08:26:58;;;;;;;;;;;41.80;47.10;;;;;;5;36013181;41266130;-91
2021/08/15 08:30:15;;;;;;;;;;;42.80;44.70;;;;;;5;36013898;41266573;-91
2021/08/15 08:33:34;;;;;;;;;;;43.50;43.70;;;;;;5;36014446;41266983;-90
2021/08/15 08:36:54;;;;;;;;;;;44.40;43.00;;;;;;5;36013825;41267216;-90
2021/08/15 08:40:08;;;;;;;;;;;45.20;41.80;;;;;;5;36013427;41266465;-90
2021/08/15 08:43:26;;;;;;;;;;;45.80;41.10;;;;;;5;36014555;41266022;-89
2021/08/15 08:46:45;;;;;;;;;;;46.10;40.30;;;;;;5;36013972;41265741;-91
2021/08/15 08:50:07;;;;;;;;;;;45.70;40.40;;;;;;5;36013925;42016308;-89
2021/08/15 08:53:22;;;;;;;;;;;45.20;41.30;;;;;;5;36013702;41266338;-91
2021/08/15 08:56:39;;;;;;;;;;;45.60;40.80;;;;;;5;36013264;41266905;-88
2021/08/15 08:59:59;;;;;;;;;;;45.70;40.30;;;;;;5;36014492;41266182;-88
2021/08/15 09:03:18;;;;;;;;;;;46.10;40.20;;;;;;5;36014064;41267445;-88
2021/08/15 09:06:33;;;;;;;;;;;46.30;39.70;;;;;;5;36013438;41266718;-90
2021/08/15 09:09:55;;;;;;;;;;;46.90;40.50;;;;;;5;36013673;41271943;-90
2021/08/15 09:13:23;;;;;;;;;;;48.00;38.70;;;;;;5;36014802;41265989;-90
2021/08/15 09:16:48;;;;;;;;;;;48.50;37.20;;;;;;5;36014355;41265932;-89
2021/08/15 09:20:03;;;;;;;;;;;48.50;37.20;;;;;;5;36014145;41265210;-90
2021/08/15 09:23:27;;;;;;;;;;;48.40;38.20;;;;;;5;36013628;42016480;-90
2021/08/15 09:26:56;;;;;;;;;;;49.10;36.60;;;;;;5;36013751;41266335;-91
2021/08/15 09:30:16;;;;;;;;;;;49.50;36.10;;;;;;5;36013107;41266609;-91
2021/08/15 09:33:30;;;;;;;;;;;48.90;37.00;;;;;;5;36014229;41266863;-90
2021/08/15 09:36:47;;;;;;;;;;;48.40;37.20;;;;;;5;36014188;41266693;-91
2021/08/15 09:40:27;;;;;;;;;;;48.30;37.20;;;;;;5;36013300;41269002;-90
2021/08/15 09:43:46;;;;;;;;;;;48.10;37.50;;;;;;5;36013737;41267258;-92
2021/08/15 09:47:00;;;;;;;;;;;48.60;36.40;;;;;;5;36015069;41265851;-90
2021/08/15 09:50:19;;;;;;;;;;;48.50;36.50;;;;;;5;36013506;41267014;-92
2021/08/15 09:53:45;;;;;;;;;;;49.30;36.00;;;;;;5;36014214;41266059;-90
2021/08/15 09:57:09;;;;;;;;;;;49.80;36.20;;;;;;5;36013539;42016109;-93
2021/08/15 10:00:23;;;;;;;;;;;50.20;35.20;;;;;;5;36014517;41265776;-91
2021/08/15 10:03:41;;;;;;;;;;;50.50;35.70;;;;;;5;36012805;41266925;-93
2021/08/15 10:07:01;;;;;;;;;;;49.40;35.40;;;;;;5;36013278;41266445;-92
2021/08/15 10:10:20;;;;;;;;;;;47.50;37.50;;;;;;5;36013973;41265714;-94
2021/08/15 10:13:35;;;;;;;;;;;45.70;39.10;;;;;;5;36013559;41266629;-92
2021/08/15 10:16:54;;;;;;;;;;;44.40;40.10;;;;;;5;36012975;41266801;-93
2021/08/15 10:20:19;;;;;;;;;;;44.90;41.20;;;;;;5;36013781;41266517;-93
2021/08/15 10:23:39;;;;;;;;;;;46.10;39.20;;;;;;5;36013100;41265930;-92
2021/08/15 10:26:54;;;;;;;;;;;47.40;38.40;;;;;;5;36014423;41265974;-92
2021/08/15 10:30:12;;;;;;;;;;;48.40;36.70;;;;;;5;36013332;42016493;-93
2021/08/15 10:33:32;;;;;;;;;;;49.40;36.20;;;;;;5;36013171;41266609;-92
2021/08/15 10:37:11;;;;;;;;;;;49.90;34.40;;;;;;5;36014866;41265596;-94
2021/08/15 10:40:38;;;;;;;;;;;50.70;34.50;;;;;;5;36014632;41265995;-93
2021/08/15 10:43:56;;;;;;;;;;;51.50;33.50;;;;;;5;36014381;41265217;-93
2021/08/15 10:47:16;;;;;;;;;;;52.20;33.60;;;;;;5;36013321;41266446;-90
2021/08/15 10:50:48;;;;;;;;;;;52.60;33.00;;;;;;5;36014426;41265573;-92
2021/08/15 10:54:02;;;;;;;;;;;53.20;32.30;;;;;;5;36014451;41265769;-93
2021/08/15 10:57:38;;;;;;;;;;;53.50;32.30;;;;;;5;36013430;41265711;-92
2021/08/15 11:00:58;;;;;;;;;;;53.30;32.00;;;;;;5;36014392;41265904;-92
2021/08/15 11:04:32;;;;;;;;;;;53.40;32.20;;;;;;5;36014618;42015706;-92
2021/08/15 11:07:46;;;;;;;;;;;53.30;31.80;;;;;;5;36013494;41266529;-91
2021/08/15 11:11:09;;;;;;;;;;;53.10;32.10;;;;;;5;36013595;41266277;-93
2021/08/15 11:14:28;;;;;;;;;;;52.80;31.50;;;;;;5;36014795;41265965;-92
2021/08/15 11:18:08;;;;;;;;;;;52.50;31.60;;;;;;5;36014124;41265799;-92
2021/08/15 11:21:42;;;;;;;;;;;52.50;32.30;;;;;;5;36015055;41266090;-92
2021/08/15 11:25:03;;;;;;;;;;;52.80;31.90;;;;;;5;36014684;41265554;-92
2021/08/15 11:28:28;;;;;;;;;;;52.70;32.20;;;;;;5;36013475;41266706;-92
2021/08/15 11:31:48;;;;;;;;;;;52.10;32.80;;;;;;5;36014475;41265292;-91
2021/08/15 11:35:02;;;;;;;;;;;52.00;32.30;;;;;;5;36014183;41265572;-93
2021/08/15 11:38:21;;;;;;;;;;;52.10;31.90;;;;;;5;36012934;42016821;-92
2021/08/15 11:41:41;;;;;;;;;;;52.00;32.70;;;;;;5;36013628;41267043;-93
2021/08/15 11:45:01;;;;;;;;;;;52.20;31.70;;;;;;5;36014070;41265499;-90
2021/08/15 11:48:15;;;;;;;;;;;52.40;31.60;;;;;;5;36013969;41266699;-92
2021/08/15 11:51:32;;;;;;;;;;;52.20;31.60;;;;;;5;36014422;41266513;-91
2021/08/15 11:54:53;;;;;;;;;;;51.60;31.50;;;;;;5;36012893;41266317;-92
2021/08/15 11:58:13;;;;;;;;;;;50.70;32.00;;;;;;5;36013077;41266696;-92
2021/08/15 12:01:27;;;;;;;;;;;49.80;33.10;;;;;;5;36015096;41265460;-92
2021/08/15 12:04:45;;;;;;;;;;;49.20;33.70;;;;;;5;36013282;41266608;-93
2021/08/15 12:08:06;;;;;;;;;;;49.10;33.70;;;;;;5;36014241;41266498;-92
2021/08/15 12:11:31;;;;;;;;;;;47.30;35.30;;;;;;5;36013267;42016529;-90
2021/08/15 12:14:45;;;;;;;;;;;45.60;36.60;;;;;;5;36014688;41265528;-91
2021/08/15 12:18:03;;;;;;;;;;;44.00;38.50;;;;;;5;36014170;41265846;-92
2021/08/15 12:21:24;;;;;;;;;;;41.80;40.30;;;;;;5;36013935;41266068;-91
2021/08/15 12:24:44;;;;;;;;;;;40.00;42.60;;;;;;5;36013422;41266472;-91
2021/08/15 12:28:12;;;;;;;;;;;38.30;45.10;;;;;;5;36013571;41266287;-91
2021/08/15 12:31:30;;;;;;;;;;;37.30;46.70;;;;;;5;36013396;41266707;-91
2021/08/15 12:34:52;;;;;;;;;;;36.40;47.80;;;;;;5;36013013;41266861;-90
2021/08/15 12:38:25;;;;;;;;;;;35.70;49.30;;;;;;5;36013493;41266697;-90
2021/08/15 12:41:52;;;;;;;;;;;34.80;50.60;;;;;;5;36013436;41266974;-89
2021/08/15 12:45:11;;;;;;;;;;;34.30;51.80;;;;;;5;36013732;42016168;-91
2021/08/15 12:48:31;;;;;;;;;;;33.90;52.30;;;;;;5;36014294;41265401;-90
2021/08/15 12:51:51;;;;;;;;;;;33.80;52.40;;;;;;5;36013606;41265233;-91
2021/08/15 12:55:11;;;;;;;;;;;33.60;53.40;;;;;;5;36013880;41265331;-91
2021/08/15 12:58:28;;;;;;;;;;;33.40;54.80;;;;;;5;36014478;41265869;-90
2021/08/15 13:01:48;;;;;;;;;;;33.10;55.20;;;;;;5;36013867;41266026;-91
2021/08/15 13:05:07;;;;;;;;;;;33.10;56.10;;;;;;5;36013175;41266122;-90
2021/08/15 13:08:21;;;;;;;;;;;33.20;57.00;;;;;;5;36013317;41266717;-91
2021/08/15 13:11:38;;;;;;;;;;;33.40;57.30;;;;;;5;36013292;41266520;-89
2021/08/15 13:14:58;;;;;;;;;;;34.50;55.00;;;;;;5;36012985;41265904;-91
2021/08/15 13:18:19;;;;;;;;;;;36.50;52.20;;;;;;5;36013254;42016928;-92
2021/08/15 13:21:33;;;;;;;;;;;38.60;49.30;;;;;;5;36013572;41265755;-93
2021/08/15 13:24:51;;;;;;;;;;;40.20;44.90;;;;;;5;36013685;41266121;-93
2021/08/15 13:28:10;;;;;;;;;;;41.50;43.10;;;;;;5;36013210;41266902;-92
2021/08/15 13:31:29;;;;;;;;;;;42.40;40.90;;;;;;5;36014400;41267327;-92
2021/08/15 13:34:44;;;;;;;;;;;42.80;41.20;;;;;;5;36013520;41266987;-92
2021/08/15 13:38:02;;;;;;;;;;;42.60;41.90;;;;;;5;36013783;41265927;-93
2021/08/15 13:41:22;;;;;;;;;;;42.70;40.30;;;;;;5;36014123;41265864;-92
2021/08/15 13:44:41;;;;;;;;;;;43.00;41.50;;;;;;5;36013704;41265670;-92
2021/08/15 13:47:55;;;;;;;;;;;43.10;41.60;;;;;;5;36014819;41267667;-91
2021/08/15 13:51:14;;;;;;;;;;;42.90;41.10;;;;;;5;36013700;42016349;-92
2021/08/15 13:54:33;;;;;;;;;;;42.70;41.00;;;;;;5;36012949;41266244;-90
2021/08/15 13:57:53;;;;;;;;;;;41.80;40.20;;;;;;5;36013915;41266686;-92
2021/08/15 14:01:07;;;;;;;;;;;41.20;42.70;;;;;;5;36013961;41265808;-91
2021/08/15 14:04:24;;;;;;;;;;;41.10;42.50;;;;;;5;36014806;41265919;-90
2021/08/15 14:07:44;;;;;;;;;;;41.10;42.00;;;;;;5;36013512;41267186;-90
2021/08/15 14:11:03;;;;;;;;;;;40.90;41.70;;;;;;5;36014333;41265473;-92
2021/08/15 14:14:19;;;;;;;;;;;40.70;43.00;;;;;;5;36013338;41266497;-92
2021/08/15 14:17:36;;;;;;;;;;;40.30;42.20;;;;;;5;36015059;41267399;-91
2021/08/15 14:20:55;;;;;;;;;;;39.70;43.70;;;;;;5;36014281;41266934;-92
2021/08/15 14:24:16;;;;;;;;;;;39.40;44.80;;;;;;5;36014699;42015938;-92
2021/08/15 14:27:30;;;;;;;;;;;39.50;44.50;;;;;;5;36014586;41266504;-92
2021/08/15 14:30:47;;;;;;;;;;;38.90;44.50;;;;;;5;36013587;41266320;-92
2021/08/15 14:34:07;;;;;;;;;;;38.80;45.50;;;;;;5;36014593;41266887;-92
2021/08/15 14:37:26;;;;;;;;;;;39.20;45.10;;;;;;5;36013673;41266928;-91
2021/08/15 14:40:40;;;;;;;;;;;39.30;45.20;;;;;;5;36014463;41265887;-92
2021/08/15 14:43:58;;;;;;;;;;;39.70;43.70;;;;;;5;36013802;41267729;-91
2021/08/15 14:47:17;;;;;;;;;;;38.90;44.90;;;;;;5;36013317;41266881;-92
2021/08/15 14:50:36;;;;;;;;;;;39.40;44.30;;;;;;5;36014126;41266806;-92
2021/08/15 14:53:50;;;;;;;;;;;39.70;44.10;;;;;;5;36014278;41267189;-92
2021/08/15 14:57:09;;;;;;;;;;;40.00;43.20;;;;;;5;36013384;42016653;-91
2021/08/15 15:00:29;;;;;;;;;;;40.00;44.30;;;;;;5;36014463;41267530;-90
2021/08/15 15:03:49;;;;;;;;;;;39.80;43.80;;;;;;5;36015121;41266276;-92
2021/08/15 15:07:07;;;;;;;;;;;39.60;45.20;;;;;;5;36014539;41265894;-92
2021/08/15 15:10:24;;;;;;;;;;;39.20;45.60;;;;;;5;36014053;41265656;-92
2021/08/15 15:13:43;;;;;;;;;;;39.10;46.10;;;;;;5;36014503;41266248;-93
2021/08/15 15:17:03;;;;;;;;;;;38.50;44.90;;;;;;5;36014152;41265966;-89
2021/08/15 15:20:18;;;;;;;;;;;38.20;46.60;;;;;;5;36014528;41265641;-92
2021/08/15 15:23:35;;;;;;;;;;;38.10;47.00;;;;;;5;36014383;41266378;-91
2021/08/15 15:26:54;;;;;;;;;;;37.80;47.90;;;;;;5;36014626;41266264;-89
2021/08/15 15:30:17;;;;;;;;;;;37.60;47.70;;;;;;5;36015187;42016992;-91
2021/08/15 15:33:32;;;;;;;;;;;37.40;48.20;;;;;;5;36014138;41268283;-92
2021/08/15 15:36:50;;;;;;;;;;;37.10;48.00;;;;;;5;36013617;41267440;-91
2021/08/15 15:40:10;;;;;;;;;;;36.60;49.40;;;;;;5;36016033;41265885;-91
2021/08/15 15:43:30;;;;;;;;;;;36.30;49.50;;;;;;5;36013784;41266213;-92
2021/08/15 15:46:45;;;;;;;;;;;35.90;50.50;;;;;;5;36014678;41266617;-91
2021/08/15 15:50:02;;;;;;;;;;;35.20;51.20;;;;;;5;36014381;41266178;-90
2021/08/15 15:53:21;;;;;;;;;;;34.60;53.60;;;;;;5;36014760;41265863;-91
2021/08/15 15:56:41;;;;;;;;;;;34.20;53.60;;;;;;5;36014099;41265623;-91
2021/08/15 15:59:55;;;;;;;;;;;33.80;54.60;;;;;;5;36014267;41265628;-91
2021/08/15 16:03:15;;;;;;;;;;;33.70;56.80;;;;;;5;36013919;42015780;-91
2021/08/15 16:06:34;;;;;;;;;;;33.50;55.20;;;;;;5;36014030;41266934;-91
2021/08/15 16:09:54;;;;;;;;;;;33.40;56.70;;;;;;5;36013144;41265725;-91
2021/08/15 16:13:08;;;;;;;;;;;33.50;57.80;;;;;;5;36013941;41265666;-91
2021/08/15 16:16:25;;;;;;;;;;;33.40;57.40;;;;;;5;36013780;41266377;-91
2021/08/15 16:19:44;;;;;;;;;;;33.20;57.70;;;;;;5;36014224;41265656;-90
2021/08/15 16:23:04;;;;;;;;;;;32.90;58.90;;;;;;5;36014307;41265479;-91
2021/08/15 16:26:18;;;;;;;;;;;32.40;59.90;;;;;;5;36014677;41265938;-91
2021/08/15 16:29:35;;;;;;;;;;;32.20;62.50;;;;;;5;36014460;41265640;-90
2021/08/15 16:32:55;;;;;;;;;;;31.90;60.30;;;;;;5;36013418;41266298;-91
2021/08/15 16:36:16;;;;;;;;;;;32.00;61.20;;;;;;5;36013005;42016151;-91
2021/08/15 16:39:30;;;;;;;;;;;32.00;60.80;;;;;;5;36013615;41265809;-91
2021/08/15 16:42:47;;;;;;;;;;;32.00;60.90;;;;;;5;36014636;41266737;-91
2021/08/15 16:46:08;;;;;;;;;;;31.70;63.10;;;;;;5;36013680;41266679;-90
2021/08/15 16:49:27;;;;;;;;;;;31.60;62.60;;;;;;5;36014498;41265756;-90
2021/08/15 16:52:41;;;;;;;;;;;31.60;64.90;;;;;;5;36014444;41265563;-90
2021/08/15 16:55:59;;;;;;;;;;;31.60;62.60;;;;;;5;36014303;41266316;-90
2021/08/15 16:59:18;;;;;;;;;;;31.50;62.00;;;;;;5;36013587;41266583;-90
2021/08/15 17:02:38;;;;;;;;;;;31.40;62.10;;;;;;5;36014761;41265620;-90
2021/08/15 17:05:52;;;;;;;;;;;31.30;62.90;;;;;;5;36014402;41267879;-90
2021/08/15 17:09:11;;;;;;;;;;;31.20;64.60;;;;;;5;36013279;42017443;-90
2021/08/15 17:12:30;;;;;;;;;;;31.00;64.70;;;;;;5;36014236;41266277;-92
2021/08/15 17:15:49;;;;;;;;;;;31.00;65.80;;;;;;5;36013507;41266768;-90
2021/08/15 17:19:05;;;;;;;;;;;30.90;66.90;;;;;;5;36013799;41266362;-88
2021/08/15 17:22:22;;;;;;;;;;;31.00;65.60;;;;;;5;36014957;41266439;-87
2021/08/15 17:25:42;;;;;;;;;;;30.90;64.30;;;;;;5;36013981;41265579;-87
2021/08/15 17:29:01;;;;;;;;;;;30.90;64.40;;;;;;5;36014023;41264924;-91
2021/08/15 17:32:16;;;;;;;;;;;30.80;64.50;;;;;;5;36013321;41266236;-92
2021/08/15 17:35:33;;;;;;;;;;;30.70;66.30;;;;;;5;36014502;41265053;-90
2021/08/15 17:38:52;;;;;;;;;;;30.70;66.80;;;;;;5;36013484;41265923;-89
2021/08/15 17:42:13;;;;;;;;;;;30.50;66.90;;;;;;5;36012950;42015995;-92
2021/08/15 17:45:27;;;;;;;;;;;30.30;67.20;;;;;;5;36015413;41265274;-77
2021/08/15 17:48:45;;;;;;;;;;;30.20;67.20;;;;;;5;36014387;41265052;-77
2021/08/15 17:52:04;;;;;;;;;;;30.10;66.40;;;;;;5;36012708;41266486;-76
2021/08/15 17:55:24;;;;;;;;;;;30.00;66.90;;;;;;5;36015320;41265869;-78
2021/08/15 17:58:38;;;;;;;;;;;29.80;67.20;;;;;;5;36012812;41267554;-77
2021/08/15 18:01:55;;;;;;;;;;;29.80;67.30;;;;;;5;36012841;41267634;-78
2021/08/15 18:05:15;;;;;;;;;;;29.70;67.40;;;;;;5;36014318;41272773;-77
2021/08/15 18:08:37;;;;;;;;;;;29.50;68.20;;;;;;5;36016663;41266810;-77
2021/08/15 18:11:51;;;;;;;;;;;29.30;68.40;;;;;;5;36014320;41266013;-79
2021/08/15 18:15:11;;;;;;;;;;;29.20;69.40;;;;;;5;36014307;42016989;-79
2021/08/15 18:18:30;;;;;;;;;;;29.00;70.00;;;;;;5;36013583;41268362;-78
2021/08/15 18:21:49;;;;;;;;;;;28.80;70.60;;;;;;5;36014207;41265953;-79
2021/08/15 18:25:04;;;;;;;;;;;28.70;70.60;;;;;;5;36014045;41266715;-79
2021/08/15 18:28:21;;;;;;;;;;;28.50;71.00;;;;;;5;36014849;41269142;-77
2021/08/15 18:31:41;;;;;;;;;;;28.40;71.90;;;;;;5;36014521;41266346;-77
2021/08/15 18:35:00;;;;;;;;;;;28.20;71.90;;;;;;5;36015462;41265621;-78
2021/08/15 18:38:15;;;;;;;;;;;28.00;75.00;;;;;;5;36013693;41266817;-77
2021/08/15 18:41:37;;;;;;;;;;;27.80;74.80;;;;;;5;36014869;41267568;-78
2021/08/15 18:44:56;;;;;;;;;;;27.60;75.30;;;;;;5;36014965;41266569;-76
2021/08/15 18:48:17;;;;;;;;;;;27.40;76.40;;;;;;5;36014570;42017702;-78
2021/08/15 18:51:33;;;;;;;;;;;27.20;76.40;;;;;;5;36014872;41265955;-78
2021/08/15 18:54:50;;;;;;;;;;;27.10;77.30;;;;;;5;36016186;41268103;-77
2021/08/15 18:58:10;;;;;;;;;;;27.00;77.20;;;;;;5;36013397;41267439;-79
2021/08/15 19:01:30;;;;;;;;;;;26.90;78.40;;;;;;5;36014057;41267633;-79
2021/08/15 19:04:44;;;;;;;;;;;26.80;79.20;;;;;;5;36014551;41266581;-78
2021/08/15 19:08:01;;;;;;;;;;;26.70;80.30;;;;;;5;36014800;41266226;-78
2021/08/15 19:11:20;;;;;;;;;;;26.60;81.90;;;;;;5;36017346;41265731;-79
2021/08/15 19:14:40;;;;;;;;;;;26.50;84.70;;;;;;5;36015222;41267672;-77
2021/08/15 19:17:54;;;;;;;;;;;26.30;85.00;;;;;;5;36015130;41266481;-79
2021/08/15 19:21:13;;;;;;;;;;;26.30;86.00;;;;;;5;36014075;42017470;-78
2021/08/15 19:24:32;;;;;;;;;;;26.20;87.00;;;;;;5;36013233;41266520;-78
2021/08/15 19:27:52;;;;;;;;;;;26.10;87.00;;;;;;5;36013284;41267323;-78
2021/08/15 19:31:06;;;;;;;;;;;26.00;87.60;;;;;;5;36013741;41267102;-79
2021/08/15 19:34:24;;;;;;;;;;;26.00;87.90;;;;;;5;36013507;41266693;-79
2021/08/15 19:37:43;;;;;;;;;;;25.90;90.20;;;;;;5;36014138;41266437;-78
2021/08/15 19:41:03;;;;;;;;;;;25.80;90.50;;;;;;5;36014161;41265412;-77
2021/08/15 19:44:17;;;;;;;;;;;25.70;90.40;;;;;;5;36013972;41266936;-79
2021/08/15 19:47:34;;;;;;;;;;;25.60;90.70;;;;;;5;36013867;41265758;-78
2021/08/15 19:50:53;;;;;;;;;;;25.50;91.60;;;;;;5;36013706;41267179;-78
2021/08/15 19:54:14;;;;;;;;;;;25.50;91.40;;;;;;5;36014226;42015481;-79
2021/08/15 19:57:34;;;;;;;;;;;25.50;91.60;;;;;;5;36014388;41265446;-79
2021/08/15 20:00:51;;;;;;;;;;;25.40;91.60;;;;;;5;36013787;41266245;-79
2021/08/15 20:04:13;;;;;;;;;;;25.30;92.20;;;;;;5;36013525;41265976;-78
2021/08/15 20:07:32;;;;;;;;;;;25.20;92.50;;;;;;5;36013762;41266223;-78
2021/08/15 20:10:46;;;;;;;;;;;25.10;92.70;;;;;;5;36014015;41265489;-78
2021/08/15 20:14:03;;;;;;;;;;;25.10;93.90;;;;;;5;36013405;41266528;-79
2021/08/15 20:17:23;;;;;;;;;;;25.00;93.90;;;;;;5;36015665;41268428;-79
2021/08/15 20:20:45;;;;;;;;;;;24.90;94.20;;;;;;5;36013914;41267377;-78
2021/08/15 20:23:59;;;;;;;;;;;24.80;95.10;;;;;;5;36013358;41266370;-78
2021/08/15 20:27:18;;;;;;;;;;;24.70;94.90;;;;;;5;36014536;42017830;-78
2021/08/15 20:30:38;;;;;;;;;;;24.70;95.80;;;;;;5;36014333;41267238;-76
2021/08/15 20:33:57;;;;;;;;;;;24.70;95.00;;;;;;5;36014087;41265944;-78
2021/08/15 20:37:11;;;;;;;;;;;24.70;95.00;;;;;;5;36015014;41266339;-78
2021/08/15 20:40:29;;;;;;;;;;;24.70;94.90;;;;;;5;36013429;41266603;-77
2021/08/15 20:43:48;;;;;;;;;;;24.60;94.90;;;;;;5;36015056;41265929;-78
2021/08/15 20:47:08;;;;;;;;;;;24.70;94.90;;;;;;5;36014791;41265932;-78
2021/08/15 20:50:22;;;;;;;;;;;24.70;94.70;;;;;;5;36013493;41266028;-78
2021/08/15 20:53:40;;;;;;;;;;;24.60;94.80;;;;;;5;36014003;41266318;-78
2021/08/15 20:56:59;;;;;;;;;;;24.60;94.20;;;;;;5;36013224;41266777;-77
2021/08/15 21:00:20;;;;;;;;;;;24.50;93.40;;;;;;5;36012922;42016146;-77
2021/08/15 21:03:34;;;;;;;;;;;24.60;93.80;;;;;;5;36014914;41266418;-78
2021/08/15 21:06:51;;;;;;;;;;;24.50;92.80;;;;;;5;36014682;41266563;-77
2021/08/15 21:10:10;;;;;;;;;;;24.50;92.80;;;;;;5;36013601;41266487;-77
2021/08/15 21:13:30;;;;;;;;;;;24.50;92.70;;;;;;5;36014037;41267090;-78
2021/08/15 21:16:46;;;;;;;;;;;24.50;92.60;;;;;;5;36012938;41266057;-78
2021/08/15 21:20:04;;;;;;;;;;;24.50;92.30;;;;;;5;36015002;41266786;-78
2021/08/15 21:23:23;;;;;;;;;;;24.60;92.50;;;;;;5;36013529;41265973;-78
2021/08/15 21:26:43;;;;;;;;;;;24.50;91.80;;;;;;5;36014794;41265754;-78
2021/08/15 21:29:57;;;;;;;;;;;24.50;91.60;;;;;;5;36013889;41266065;-78
2021/08/15 21:33:16;;;;;;;;;;;24.50;92.30;;;;;;5;36012952;42016896;-78
2021/08/15 21:36:37;;;;;;;;;;;24.40;91.90;;;;;;5;36014547;41265841;-78
2021/08/15 21:39:56;;;;;;;;;;;24.40;91.80;;;;;;5;36014092;41265185;-78
2021/08/15 21:43:10;;;;;;;;;;;24.40;91.10;;;;;;5;36014529;41265448;-78
2021/08/15 21:46:28;;;;;;;;;;;24.50;90.80;;;;;;5;36012893;41266413;-78
2021/08/15 21:49:48;;;;;;;;;;;24.60;90.70;;;;;;5;36014011;41267633;-78
2021/08/15 21:53:07;;;;;;;;;;;24.70;91.00;;;;;;5;36013260;41266535;-78
2021/08/15 21:56:21;;;;;;;;;;;24.80;89.80;;;;;;5;36013932;41265989;-78
2021/08/15 21:59:38;;;;;;;;;;;24.80;88.90;;;;;;5;36013030;41265896;-78
